sensor_id;sensor_type;location;lat;lon;timestamp;temperature;humidity
18575;DHT22;9417;16.484;102.872;2023-12-29T00:00:52;20.10;91.40
18575;DHT22;9417;16.484;102.872;2023-12-29T00:02:59;20.00;91.60
18575;DHT22;9417;16.484;102.872;2023-12-29T00:05:07;20.00;91.50
18575;DHT22;9417;16.484;102.872;2023-12-29T00:07:16;20.00;91.90
18575;DHT22;9417;16.484;102.872;2023-12-29T00:09:27;20.00;92.50
18575;DHT22;9417;16.484;102.872;2023-12-29T00:11:34;20.00;93.00
18575;DHT22;9417;16.484;102.872;2023-12-29T00:13:41;20.00;93.00
18575;DHT22;9417;16.484;102.872;2023-12-29T00:15:49;20.00;92.90
18575;DHT22;9417;16.484;102.872;2023-12-29T00:17:58;20.00;93.20
18575;DHT22;9417;16.484;102.872;2023-12-29T00:20:07;20.10;93.10
18575;DHT22;9417;16.484;102.872;2023-12-29T00:22:15;20.10;93.20
18575;DHT22;9417;16.484;102.872;2023-12-29T00:24:25;20.10;93.40
18575;DHT22;9417;16.484;102.872;2023-12-29T00:26:32;20.10;93.20
18575;DHT22;9417;16.484;102.872;2023-12-29T00:28:39;20.20;92.80
18575;DHT22;9417;16.484;102.872;2023-12-29T00:30:47;20.30;92.90
18575;DHT22;9417;16.484;102.872;2023-12-29T00:33:05;20.30;92.70
18575;DHT22;9417;16.484;102.872;2023-12-29T00:35:12;20.30;93.00
18575;DHT22;9417;16.484;102.872;2023-12-29T00:37:18;20.40;93.00
18575;DHT22;9417;16.484;102.872;2023-12-29T00:39:28;20.40;92.90
18575;DHT22;9417;16.484;102.872;2023-12-29T00:41:35;20.50;93.00
18575;DHT22;9417;16.484;102.872;2023-12-29T00:43:43;20.50;93.00
18575;DHT22;9417;16.484;102.872;2023-12-29T00:45:50;20.60;93.00
18575;DHT22;9417;16.484;102.872;2023-12-29T00:47:58;20.60;92.80
18575;DHT22;9417;16.484;102.872;2023-12-29T00:50:07;20.70;92.40
18575;DHT22;9417;16.484;102.872;2023-12-29T00:52:14;20.70;92.20
18575;DHT22;9417;16.484;102.872;2023-12-29T00:54:21;20.90;91.90
18575;DHT22;9417;16.484;102.872;2023-12-29T00:56:35;20.90;91.40
18575;DHT22;9417;16.484;102.872;2023-12-29T00:58:42;20.90;91.20
18575;DHT22;9417;16.484;102.872;2023-12-29T01:00:49;21.00;90.90
18575;DHT22;9417;16.484;102.872;2023-12-29T01:02:57;21.10;90.60
18575;DHT22;9417;16.484;102.872;2023-12-29T01:05:03;21.10;90.10
18575;DHT22;9417;16.484;102.872;2023-12-29T01:07:11;21.30;89.50
18575;DHT22;9417;16.484;102.872;2023-12-29T01:09:17;21.30;88.90
18575;DHT22;9417;16.484;102.872;2023-12-29T01:11:24;21.40;88.90
18575;DHT22;9417;16.484;102.872;2023-12-29T01:13:34;21.50;88.20
18575;DHT22;9417;16.484;102.872;2023-12-29T01:15:41;21.60;87.60
18575;DHT22;9417;16.484;102.872;2023-12-29T01:17:50;21.60;86.80
18575;DHT22;9417;16.484;102.872;2023-12-29T01:19:57;21.70;86.00
18575;DHT22;9417;16.484;102.872;2023-12-29T01:22:04;21.80;86.60
18575;DHT22;9417;16.484;102.872;2023-12-29T01:24:12;21.90;86.10
18575;DHT22;9417;16.484;102.872;2023-12-29T01:26:23;21.90;86.50
18575;DHT22;9417;16.484;102.872;2023-12-29T01:28:34;22.00;86.30
18575;DHT22;9417;16.484;102.872;2023-12-29T01:30:42;22.10;85.60
18575;DHT22;9417;16.484;102.872;2023-12-29T01:32:49;22.10;85.50
18575;DHT22;9417;16.484;102.872;2023-12-29T01:34:56;22.20;85.00
18575;DHT22;9417;16.484;102.872;2023-12-29T01:37:04;22.30;84.80
18575;DHT22;9417;16.484;102.872;2023-12-29T01:39:13;22.40;85.20
18575;DHT22;9417;16.484;102.872;2023-12-29T01:41:22;22.40;84.60
18575;DHT22;9417;16.484;102.872;2023-12-29T01:43:29;22.50;83.70
18575;DHT22;9417;16.484;102.872;2023-12-29T01:45:39;22.60;83.50
18575;DHT22;9417;16.484;102.872;2023-12-29T01:47:58;22.70;83.40
18575;DHT22;9417;16.484;102.872;2023-12-29T01:50:07;22.80;83.10
18575;DHT22;9417;16.484;102.872;2023-12-29T01:52:17;22.90;82.80
18575;DHT22;9417;16.484;102.872;2023-12-29T01:54:27;23.00;82.60
18575;DHT22;9417;16.484;102.872;2023-12-29T01:56:37;23.00;81.70
18575;DHT22;9417;16.484;102.872;2023-12-29T01:58:44;23.00;81.80
18575;DHT22;9417;16.484;102.872;2023-12-29T02:00:54;23.10;81.60
18575;DHT22;9417;16.484;102.872;2023-12-29T02:03:01;23.10;81.80
18575;DHT22;9417;16.484;102.872;2023-12-29T02:05:09;23.20;80.70
18575;DHT22;9417;16.484;102.872;2023-12-29T02:07:20;23.30;81.00
18575;DHT22;9417;16.484;102.872;2023-12-29T02:09:28;23.40;80.30
18575;DHT22;9417;16.484;102.872;2023-12-29T02:11:35;23.40;79.00
18575;DHT22;9417;16.484;102.872;2023-12-29T02:13:43;23.50;79.00
18575;DHT22;9417;16.484;102.872;2023-12-29T02:15:51;23.50;78.80
18575;DHT22;9417;16.484;102.872;2023-12-29T02:18:03;23.60;79.00
18575;DHT22;9417;16.484;102.872;2023-12-29T02:20:10;23.70;78.90
18575;DHT22;9417;16.484;102.872;2023-12-29T02:22:18;23.80;78.80
18575;DHT22;9417;16.484;102.872;2023-12-29T02:24:26;23.80;77.40
18575;DHT22;9417;16.484;102.872;2023-12-29T02:26:37;23.90;78.10
18575;DHT22;9417;16.484;102.872;2023-12-29T02:28:47;24.00;77.40
18575;DHT22;9417;16.484;102.872;2023-12-29T02:30:59;24.10;78.00
18575;DHT22;9417;16.484;102.872;2023-12-29T02:33:10;24.10;76.80
18575;DHT22;9417;16.484;102.872;2023-12-29T02:35:24;24.20;76.30
18575;DHT22;9417;16.484;102.872;2023-12-29T02:37:32;24.30;76.40
18575;DHT22;9417;16.484;102.872;2023-12-29T02:39:40;24.40;76.20
18575;DHT22;9417;16.484;102.872;2023-12-29T02:41:49;24.50;75.80
18575;DHT22;9417;16.484;102.872;2023-12-29T02:43:57;24.50;74.80
18575;DHT22;9417;16.484;102.872;2023-12-29T02:46:04;24.60;75.60
18575;DHT22;9417;16.484;102.872;2023-12-29T02:48:12;24.60;74.70
18575;DHT22;9417;16.484;102.872;2023-12-29T02:50:19;24.70;74.60
18575;DHT22;9417;16.484;102.872;2023-12-29T02:52:27;24.70;74.20
18575;DHT22;9417;16.484;102.872;2023-12-29T02:54:33;24.80;74.20
18575;DHT22;9417;16.484;102.872;2023-12-29T02:56:40;24.90;73.30
18575;DHT22;9417;16.484;102.872;2023-12-29T02:58:49;25.00;73.30
18575;DHT22;9417;16.484;102.872;2023-12-29T03:00:56;25.10;72.70
18575;DHT22;9417;16.484;102.872;2023-12-29T03:03:04;25.20;73.40
18575;DHT22;9417;16.484;102.872;2023-12-29T03:05:12;25.20;73.50
18575;DHT22;9417;16.484;102.872;2023-12-29T03:07:18;25.30;72.80
18575;DHT22;9417;16.484;102.872;2023-12-29T03:09:26;25.40;72.20
18575;DHT22;9417;16.484;102.872;2023-12-29T03:11:33;25.50;72.00
18575;DHT22;9417;16.484;102.872;2023-12-29T03:13:42;25.60;71.70
18575;DHT22;9417;16.484;102.872;2023-12-29T03:15:51;25.60;70.60
18575;DHT22;9417;16.484;102.872;2023-12-29T03:17:59;25.70;70.60
18575;DHT22;9417;16.484;102.872;2023-12-29T03:20:07;25.70;70.60
18575;DHT22;9417;16.484;102.872;2023-12-29T03:22:13;25.70;70.80
18575;DHT22;9417;16.484;102.872;2023-12-29T03:24:21;25.70;70.90
18575;DHT22;9417;16.484;102.872;2023-12-29T03:26:28;25.80;69.90
18575;DHT22;9417;16.484;102.872;2023-12-29T03:28:35;25.80;70.40
18575;DHT22;9417;16.484;102.872;2023-12-29T03:30:42;25.90;71.20
18575;DHT22;9417;16.484;102.872;2023-12-29T03:32:51;26.00;70.60
18575;DHT22;9417;16.484;102.872;2023-12-29T03:34:58;26.10;69.80
18575;DHT22;9417;16.484;102.872;2023-12-29T03:37:06;26.10;69.60
18575;DHT22;9417;16.484;102.872;2023-12-29T03:39:14;26.20;69.80
18575;DHT22;9417;16.484;102.872;2023-12-29T03:41:22;26.30;70.50
18575;DHT22;9417;16.484;102.872;2023-12-29T03:43:29;26.30;68.90
18575;DHT22;9417;16.484;102.872;2023-12-29T03:45:36;26.40;69.10
18575;DHT22;9417;16.484;102.872;2023-12-29T03:47:44;26.40;68.80
18575;DHT22;9417;16.484;102.872;2023-12-29T03:49:53;26.50;69.10
18575;DHT22;9417;16.484;102.872;2023-12-29T03:52:00;26.60;68.40
18575;DHT22;9417;16.484;102.872;2023-12-29T03:54:08;26.70;69.00
18575;DHT22;9417;16.484;102.872;2023-12-29T03:56:16;26.80;68.90
18575;DHT22;9417;16.484;102.872;2023-12-29T03:58:24;26.80;68.40
18575;DHT22;9417;16.484;102.872;2023-12-29T04:00:32;27.00;68.10
18575;DHT22;9417;16.484;102.872;2023-12-29T04:02:40;27.00;67.80
18575;DHT22;9417;16.484;102.872;2023-12-29T04:04:48;27.10;66.80
18575;DHT22;9417;16.484;102.872;2023-12-29T04:06:57;27.20;67.80
18575;DHT22;9417;16.484;102.872;2023-12-29T04:09:04;27.20;66.60
18575;DHT22;9417;16.484;102.872;2023-12-29T04:11:12;27.20;66.70
18575;DHT22;9417;16.484;102.872;2023-12-29T04:13:19;27.20;65.50
18575;DHT22;9417;16.484;102.872;2023-12-29T04:15:25;27.20;66.10
18575;DHT22;9417;16.484;102.872;2023-12-29T04:17:32;27.30;66.20
18575;DHT22;9417;16.484;102.872;2023-12-29T04:19:40;27.40;66.10
18575;DHT22;9417;16.484;102.872;2023-12-29T04:21:47;27.40;65.30
18575;DHT22;9417;16.484;102.872;2023-12-29T04:23:56;27.50;65.20
18575;DHT22;9417;16.484;102.872;2023-12-29T04:26:03;27.60;65.00
18575;DHT22;9417;16.484;102.872;2023-12-29T04:28:11;27.60;64.50
18575;DHT22;9417;16.484;102.872;2023-12-29T04:30:18;27.70;64.70
18575;DHT22;9417;16.484;102.872;2023-12-29T04:32:26;27.80;63.70
18575;DHT22;9417;16.484;102.872;2023-12-29T04:34:33;27.90;64.40
18575;DHT22;9417;16.484;102.872;2023-12-29T04:36:41;28.00;64.00
18575;DHT22;9417;16.484;102.872;2023-12-29T04:38:48;28.10;63.50
18575;DHT22;9417;16.484;102.872;2023-12-29T04:40:59;28.20;62.50
18575;DHT22;9417;16.484;102.872;2023-12-29T04:43:06;28.20;62.40
18575;DHT22;9417;16.484;102.872;2023-12-29T04:45:13;28.20;62.40
18575;DHT22;9417;16.484;102.872;2023-12-29T04:47:20;28.20;62.60
18575;DHT22;9417;16.484;102.872;2023-12-29T04:49:28;28.10;62.60
18575;DHT22;9417;16.484;102.872;2023-12-29T04:51:35;28.00;63.10
18575;DHT22;9417;16.484;102.872;2023-12-29T04:53:43;28.00;63.60
18575;DHT22;9417;16.484;102.872;2023-12-29T04:55:50;28.10;63.20
18575;DHT22;9417;16.484;102.872;2023-12-29T04:57:59;28.20;63.30
18575;DHT22;9417;16.484;102.872;2023-12-29T05:00:08;28.40;63.10
18575;DHT22;9417;16.484;102.872;2023-12-29T05:02:16;28.40;61.90
18575;DHT22;9417;16.484;102.872;2023-12-29T05:04:24;28.50;62.20
18575;DHT22;9417;16.484;102.872;2023-12-29T05:06:32;28.60;61.80
18575;DHT22;9417;16.484;102.872;2023-12-29T05:08:40;28.70;62.30
18575;DHT22;9417;16.484;102.872;2023-12-29T05:10:48;28.70;61.90
18575;DHT22;9417;16.484;102.872;2023-12-29T05:12:55;28.80;61.20
18575;DHT22;9417;16.484;102.872;2023-12-29T05:15:06;29.00;61.50
18575;DHT22;9417;16.484;102.872;2023-12-29T05:17:13;29.10;61.30
18575;DHT22;9417;16.484;102.872;2023-12-29T05:19:21;29.10;60.40
18575;DHT22;9417;16.484;102.872;2023-12-29T05:21:28;29.00;60.70
18575;DHT22;9417;16.484;102.872;2023-12-29T05:23:35;28.80;61.40
18575;DHT22;9417;16.484;102.872;2023-12-29T05:25:41;28.80;62.60
18575;DHT22;9417;16.484;102.872;2023-12-29T05:27:49;28.90;60.90
18575;DHT22;9417;16.484;102.872;2023-12-29T05:29:56;28.90;60.60
18575;DHT22;9417;16.484;102.872;2023-12-29T05:32:06;28.80;61.10
18575;DHT22;9417;16.484;102.872;2023-12-29T05:34:13;28.70;61.70
18575;DHT22;9417;16.484;102.872;2023-12-29T05:36:21;28.60;61.70
18575;DHT22;9417;16.484;102.872;2023-12-29T05:38:28;28.60;61.40
18575;DHT22;9417;16.484;102.872;2023-12-29T05:40:35;28.60;61.30
18575;DHT22;9417;16.484;102.872;2023-12-29T05:42:42;28.60;61.70
18575;DHT22;9417;16.484;102.872;2023-12-29T05:44:53;28.70;61.80
18575;DHT22;9417;16.484;102.872;2023-12-29T05:47:00;28.80;61.90
18575;DHT22;9417;16.484;102.872;2023-12-29T05:49:10;28.90;61.90
18575;DHT22;9417;16.484;102.872;2023-12-29T05:51:17;29.00;60.40
18575;DHT22;9417;16.484;102.872;2023-12-29T05:53:25;29.20;59.90
18575;DHT22;9417;16.484;102.872;2023-12-29T05:55:32;29.30;59.40
18575;DHT22;9417;16.484;102.872;2023-12-29T05:57:38;29.30;60.30
18575;DHT22;9417;16.484;102.872;2023-12-29T05:59:46;29.30;59.30
18575;DHT22;9417;16.484;102.872;2023-12-29T06:01:53;29.30;59.30
18575;DHT22;9417;16.484;102.872;2023-12-29T06:04:01;29.30;59.40
18575;DHT22;9417;16.484;102.872;2023-12-29T06:06:09;29.40;59.40
18575;DHT22;9417;16.484;102.872;2023-12-29T06:08:16;29.40;59.50
18575;DHT22;9417;16.484;102.872;2023-12-29T06:10:23;29.50;59.60
18575;DHT22;9417;16.484;102.872;2023-12-29T06:12:30;29.60;59.00
18575;DHT22;9417;16.484;102.872;2023-12-29T06:14:38;29.60;59.00
18575;DHT22;9417;16.484;102.872;2023-12-29T06:16:46;29.70;58.70
18575;DHT22;9417;16.484;102.872;2023-12-29T06:18:52;29.80;58.70
18575;DHT22;9417;16.484;102.872;2023-12-29T06:21:01;29.80;58.10
18575;DHT22;9417;16.484;102.872;2023-12-29T06:23:10;29.80;58.40
18575;DHT22;9417;16.484;102.872;2023-12-29T06:25:17;29.60;59.40
18575;DHT22;9417;16.484;102.872;2023-12-29T06:27:26;29.70;58.70
18575;DHT22;9417;16.484;102.872;2023-12-29T06:29:34;29.70;58.90
18575;DHT22;9417;16.484;102.872;2023-12-29T06:31:41;29.70;60.10
18575;DHT22;9417;16.484;102.872;2023-12-29T06:33:49;29.70;59.50
18575;DHT22;9417;16.484;102.872;2023-12-29T06:35:56;29.80;58.50
18575;DHT22;9417;16.484;102.872;2023-12-29T06:38:04;29.80;58.30
18575;DHT22;9417;16.484;102.872;2023-12-29T06:40:13;29.80;58.10
18575;DHT22;9417;16.484;102.872;2023-12-29T06:42:21;29.90;58.30
18575;DHT22;9417;16.484;102.872;2023-12-29T06:44:29;30.00;58.20
18575;DHT22;9417;16.484;102.872;2023-12-29T06:46:38;30.00;57.30
18575;DHT22;9417;16.484;102.872;2023-12-29T06:48:46;30.10;57.10
18575;DHT22;9417;16.484;102.872;2023-12-29T06:50:54;30.00;57.50
18575;DHT22;9417;16.484;102.872;2023-12-29T06:53:03;30.00;57.60
18575;DHT22;9417;16.484;102.872;2023-12-29T06:55:12;30.10;57.40
18575;DHT22;9417;16.484;102.872;2023-12-29T06:57:20;30.20;57.40
18575;DHT22;9417;16.484;102.872;2023-12-29T06:59:27;30.20;57.50
18575;DHT22;9417;16.484;102.872;2023-12-29T07:01:38;30.20;57.60
18575;DHT22;9417;16.484;102.872;2023-12-29T07:03:46;30.20;57.20
18575;DHT22;9417;16.484;102.872;2023-12-29T07:05:54;30.20;56.40
18575;DHT22;9417;16.484;102.872;2023-12-29T07:08:01;30.30;55.90
18575;DHT22;9417;16.484;102.872;2023-12-29T07:10:11;30.30;56.40
18575;DHT22;9417;16.484;102.872;2023-12-29T07:12:21;30.30;57.00
18575;DHT22;9417;16.484;102.872;2023-12-29T07:14:28;30.30;57.30
18575;DHT22;9417;16.484;102.872;2023-12-29T07:16:35;30.20;57.70
18575;DHT22;9417;16.484;102.872;2023-12-29T07:18:42;30.20;57.10
18575;DHT22;9417;16.484;102.872;2023-12-29T07:20:50;30.30;56.80
18575;DHT22;9417;16.484;102.872;2023-12-29T07:22:57;30.30;56.70
18575;DHT22;9417;16.484;102.872;2023-12-29T07:25:05;30.30;57.00
18575;DHT22;9417;16.484;102.872;2023-12-29T07:27:12;30.30;56.90
18575;DHT22;9417;16.484;102.872;2023-12-29T07:29:22;30.50;56.50
18575;DHT22;9417;16.484;102.872;2023-12-29T07:31:29;30.30;55.50
18575;DHT22;9417;16.484;102.872;2023-12-29T07:33:36;30.20;56.30
18575;DHT22;9417;16.484;102.872;2023-12-29T07:35:43;30.20;56.00
18575;DHT22;9417;16.484;102.872;2023-12-29T07:37:50;30.10;57.40
18575;DHT22;9417;16.484;102.872;2023-12-29T07:39:57;30.20;57.50
18575;DHT22;9417;16.484;102.872;2023-12-29T07:42:05;30.20;57.30
18575;DHT22;9417;16.484;102.872;2023-12-29T07:44:14;30.20;56.30
18575;DHT22;9417;16.484;102.872;2023-12-29T07:46:32;30.30;56.50
18575;DHT22;9417;16.484;102.872;2023-12-29T07:48:40;30.40;57.30
18575;DHT22;9417;16.484;102.872;2023-12-29T07:50:47;30.40;57.10
18575;DHT22;9417;16.484;102.872;2023-12-29T07:52:54;30.50;57.10
18575;DHT22;9417;16.484;102.872;2023-12-29T07:55:02;30.40;56.10
18575;DHT22;9417;16.484;102.872;2023-12-29T07:57:09;30.50;56.40
18575;DHT22;9417;16.484;102.872;2023-12-29T07:59:16;30.50;56.10
18575;DHT22;9417;16.484;102.872;2023-12-29T08:01:24;30.40;57.20
18575;DHT22;9417;16.484;102.872;2023-12-29T08:03:33;30.40;57.10
18575;DHT22;9417;16.484;102.872;2023-12-29T08:05:41;30.40;56.80
18575;DHT22;9417;16.484;102.872;2023-12-29T08:07:48;30.40;56.30
18575;DHT22;9417;16.484;102.872;2023-12-29T08:09:55;30.40;56.10
18575;DHT22;9417;16.484;102.872;2023-12-29T08:12:04;30.50;56.10
18575;DHT22;9417;16.484;102.872;2023-12-29T08:14:11;30.50;56.40
18575;DHT22;9417;16.484;102.872;2023-12-29T08:16:19;30.50;56.20
18575;DHT22;9417;16.484;102.872;2023-12-29T08:18:26;30.40;55.40
18575;DHT22;9417;16.484;102.872;2023-12-29T08:20:35;30.40;55.90
18575;DHT22;9417;16.484;102.872;2023-12-29T08:22:43;30.40;56.00
18575;DHT22;9417;16.484;102.872;2023-12-29T08:24:50;30.40;55.00
18575;DHT22;9417;16.484;102.872;2023-12-29T08:26:57;30.30;55.80
18575;DHT22;9417;16.484;102.872;2023-12-29T08:29:04;30.40;55.60
18575;DHT22;9417;16.484;102.872;2023-12-29T08:31:12;30.30;55.70
18575;DHT22;9417;16.484;102.872;2023-12-29T08:33:20;30.30;55.40
18575;DHT22;9417;16.484;102.872;2023-12-29T08:35:26;30.20;55.10
18575;DHT22;9417;16.484;102.872;2023-12-29T08:37:35;30.20;55.50
18575;DHT22;9417;16.484;102.872;2023-12-29T08:39:42;30.20;56.10
18575;DHT22;9417;16.484;102.872;2023-12-29T08:41:49;30.20;56.40
18575;DHT22;9417;16.484;102.872;2023-12-29T08:43:56;30.20;56.30
18575;DHT22;9417;16.484;102.872;2023-12-29T08:46:04;30.20;56.10
18575;DHT22;9417;16.484;102.872;2023-12-29T08:48:11;30.20;56.10
18575;DHT22;9417;16.484;102.872;2023-12-29T08:50:19;30.10;55.60
18575;DHT22;9417;16.484;102.872;2023-12-29T08:52:26;30.10;55.30
18575;DHT22;9417;16.484;102.872;2023-12-29T08:54:35;30.10;54.90
18575;DHT22;9417;16.484;102.872;2023-12-29T08:56:43;30.00;55.30
18575;DHT22;9417;16.484;102.872;2023-12-29T08:58:50;30.10;55.60
18575;DHT22;9417;16.484;102.872;2023-12-29T09:00:58;30.10;55.70
18575;DHT22;9417;16.484;102.872;2023-12-29T09:03:05;30.00;56.00
18575;DHT22;9417;16.484;102.872;2023-12-29T09:05:13;30.00;56.20
18575;DHT22;9417;16.484;102.872;2023-12-29T09:07:20;29.90;55.90
18575;DHT22;9417;16.484;102.872;2023-12-29T09:09:27;29.90;56.10
18575;DHT22;9417;16.484;102.872;2023-12-29T09:11:37;29.90;56.40
18575;DHT22;9417;16.484;102.872;2023-12-29T09:13:44;29.90;56.50
18575;DHT22;9417;16.484;102.872;2023-12-29T09:15:52;29.90;56.80
18575;DHT22;9417;16.484;102.872;2023-12-29T09:17:59;29.90;58.00
18575;DHT22;9417;16.484;102.872;2023-12-29T09:20:08;29.90;57.00
18575;DHT22;9417;16.484;102.872;2023-12-29T09:22:15;29.90;57.80
18575;DHT22;9417;16.484;102.872;2023-12-29T09:24:22;29.80;57.20
18575;DHT22;9417;16.484;102.872;2023-12-29T09:26:29;29.80;57.30
18575;DHT22;9417;16.484;102.872;2023-12-29T09:28:41;29.70;57.10
18575;DHT22;9417;16.484;102.872;2023-12-29T09:30:49;29.70;56.90
18575;DHT22;9417;16.484;102.872;2023-12-29T09:32:56;29.70;57.20
18575;DHT22;9417;16.484;102.872;2023-12-29T09:35:04;29.70;57.30
18575;DHT22;9417;16.484;102.872;2023-12-29T09:37:11;29.70;57.40
18575;DHT22;9417;16.484;102.872;2023-12-29T09:39:19;29.70;57.40
18575;DHT22;9417;16.484;102.872;2023-12-29T09:41:26;29.60;57.80
18575;DHT22;9417;16.484;102.872;2023-12-29T09:43:35;29.60;57.80
18575;DHT22;9417;16.484;102.872;2023-12-29T09:45:46;29.60;57.60
18575;DHT22;9417;16.484;102.872;2023-12-29T09:47:55;29.60;58.00
18575;DHT22;9417;16.484;102.872;2023-12-29T09:50:05;29.60;58.00
18575;DHT22;9417;16.484;102.872;2023-12-29T09:52:14;29.60;58.00
18575;DHT22;9417;16.484;102.872;2023-12-29T09:54:23;29.50;58.30
18575;DHT22;9417;16.484;102.872;2023-12-29T09:56:31;29.50;58.80
18575;DHT22;9417;16.484;102.872;2023-12-29T09:58:37;29.50;58.80
18575;DHT22;9417;16.484;102.872;2023-12-29T10:00:47;29.50;58.80
18575;DHT22;9417;16.484;102.872;2023-12-29T10:02:56;29.40;58.60
18575;DHT22;9417;16.484;102.872;2023-12-29T10:05:05;29.40;58.60
18575;DHT22;9417;16.484;102.872;2023-12-29T10:07:18;29.40;58.90
18575;DHT22;9417;16.484;102.872;2023-12-29T10:09:27;29.40;59.30
18575;DHT22;9417;16.484;102.872;2023-12-29T10:11:36;29.30;59.20
18575;DHT22;9417;16.484;102.872;2023-12-29T10:13:45;29.30;59.80
18575;DHT22;9417;16.484;102.872;2023-12-29T10:16:02;29.20;59.60
18575;DHT22;9417;16.484;102.872;2023-12-29T10:18:18;29.20;59.60
18575;DHT22;9417;16.484;102.872;2023-12-29T10:20:38;29.20;59.70
18575;DHT22;9417;16.484;102.872;2023-12-29T10:22:54;29.10;59.70
18575;DHT22;9417;16.484;102.872;2023-12-29T10:25:08;29.10;59.80
18575;DHT22;9417;16.484;102.872;2023-12-29T10:27:15;29.00;59.90
18575;DHT22;9417;16.484;102.872;2023-12-29T10:29:22;29.00;60.40
18575;DHT22;9417;16.484;102.872;2023-12-29T10:31:31;29.00;60.30
18575;DHT22;9417;16.484;102.872;2023-12-29T10:33:39;29.00;60.20
18575;DHT22;9417;16.484;102.872;2023-12-29T10:35:57;29.00;60.20
18575;DHT22;9417;16.484;102.872;2023-12-29T10:38:11;29.00;60.30
18575;DHT22;9417;16.484;102.872;2023-12-29T10:40:19;28.90;60.80
18575;DHT22;9417;16.484;102.872;2023-12-29T10:42:26;28.90;61.10
18575;DHT22;9417;16.484;102.872;2023-12-29T10:44:34;28.80;61.20
18575;DHT22;9417;16.484;102.872;2023-12-29T10:46:43;28.80;61.40
18575;DHT22;9417;16.484;102.872;2023-12-29T10:48:51;28.80;61.50
18575;DHT22;9417;16.484;102.872;2023-12-29T10:50:59;28.70;61.70
18575;DHT22;9417;16.484;102.872;2023-12-29T10:53:14;28.70;61.80
18575;DHT22;9417;16.484;102.872;2023-12-29T10:55:24;28.60;62.10
18575;DHT22;9417;16.484;102.872;2023-12-29T10:57:31;28.60;62.10
18575;DHT22;9417;16.484;102.872;2023-12-29T10:59:38;28.60;62.50
18575;DHT22;9417;16.484;102.872;2023-12-29T11:01:47;28.50;62.60
18575;DHT22;9417;16.484;102.872;2023-12-29T11:04:00;28.50;62.70
18575;DHT22;9417;16.484;102.872;2023-12-29T11:06:08;28.40;62.70
18575;DHT22;9417;16.484;102.872;2023-12-29T11:08:19;28.40;62.70
18575;DHT22;9417;16.484;102.872;2023-12-29T11:10:26;28.30;63.00
18575;DHT22;9417;16.484;102.872;2023-12-29T11:12:35;28.30;63.40
18575;DHT22;9417;16.484;102.872;2023-12-29T11:14:43;28.30;64.30
18575;DHT22;9417;16.484;102.872;2023-12-29T11:16:55;28.30;65.50
18575;DHT22;9417;16.484;102.872;2023-12-29T11:19:03;28.20;66.30
18575;DHT22;9417;16.484;102.872;2023-12-29T11:21:11;28.10;66.60
18575;DHT22;9417;16.484;102.872;2023-12-29T11:23:19;28.00;66.80
18575;DHT22;9417;16.484;102.872;2023-12-29T11:25:26;28.00;67.60
18575;DHT22;9417;16.484;102.872;2023-12-29T11:27:33;27.90;68.20
18575;DHT22;9417;16.484;102.872;2023-12-29T11:29:42;27.80;67.40
18575;DHT22;9417;16.484;102.872;2023-12-29T11:31:50;27.60;66.80
18575;DHT22;9417;16.484;102.872;2023-12-29T11:34:05;27.60;67.60
18575;DHT22;9417;16.484;102.872;2023-12-29T11:36:18;27.50;68.60
18575;DHT22;9417;16.484;102.872;2023-12-29T11:38:44;27.40;69.20
18575;DHT22;9417;16.484;102.872;2023-12-29T11:41:00;27.30;69.00
18575;DHT22;9417;16.484;102.872;2023-12-29T11:43:14;27.20;69.60
18575;DHT22;9417;16.484;102.872;2023-12-29T11:45:28;27.20;70.00
18575;DHT22;9417;16.484;102.872;2023-12-29T11:47:37;27.10;70.60
18575;DHT22;9417;16.484;102.872;2023-12-29T11:50:02;27.10;71.00
18575;DHT22;9417;16.484;102.872;2023-12-29T11:52:09;27.00;71.40
18575;DHT22;9417;16.484;102.872;2023-12-29T11:54:23;26.90;71.80
18575;DHT22;9417;16.484;102.872;2023-12-29T11:56:35;26.90;72.20
18575;DHT22;9417;16.484;102.872;2023-12-29T11:58:42;26.90;72.40
18575;DHT22;9417;16.484;102.872;2023-12-29T12:00:49;26.80;72.50
18575;DHT22;9417;16.484;102.872;2023-12-29T12:02:55;26.70;72.70
18575;DHT22;9417;16.484;102.872;2023-12-29T12:05:06;26.70;72.90
18575;DHT22;9417;16.484;102.872;2023-12-29T12:07:56;26.70;73.20
18575;DHT22;9417;16.484;102.872;2023-12-29T12:09:43;26.60;73.50
18575;DHT22;9417;16.484;102.872;2023-12-29T12:11:54;26.50;73.80
18575;DHT22;9417;16.484;102.872;2023-12-29T12:14:01;26.50;74.00
18575;DHT22;9417;16.484;102.872;2023-12-29T12:16:09;26.40;74.30
18575;DHT22;9417;16.484;102.872;2023-12-29T12:18:15;26.40;74.40
18575;DHT22;9417;16.484;102.872;2023-12-29T12:20:24;26.40;74.60
18575;DHT22;9417;16.484;102.872;2023-12-29T12:22:33;26.40;74.60
18575;DHT22;9417;16.484;102.872;2023-12-29T12:24:42;26.30;74.70
18575;DHT22;9417;16.484;102.872;2023-12-29T12:26:48;26.30;75.00
18575;DHT22;9417;16.484;102.872;2023-12-29T12:28:56;26.30;75.30
18575;DHT22;9417;16.484;102.872;2023-12-29T12:31:06;26.20;75.60
18575;DHT22;9417;16.484;102.872;2023-12-29T12:33:14;26.20;75.90
18575;DHT22;9417;16.484;102.872;2023-12-29T12:35:23;26.20;76.10
18575;DHT22;9417;16.484;102.872;2023-12-29T12:37:31;26.20;76.30
18575;DHT22;9417;16.484;102.872;2023-12-29T12:39:42;26.10;76.40
18575;DHT22;9417;16.484;102.872;2023-12-29T12:41:49;26.10;76.50
18575;DHT22;9417;16.484;102.872;2023-12-29T12:44:04;26.00;76.70
18575;DHT22;9417;16.484;102.872;2023-12-29T12:46:15;26.00;77.20
18575;DHT22;9417;16.484;102.872;2023-12-29T12:48:24;26.00;77.30
18575;DHT22;9417;16.484;102.872;2023-12-29T12:50:41;25.90;77.20
18575;DHT22;9417;16.484;102.872;2023-12-29T12:52:49;25.90;77.20
18575;DHT22;9417;16.484;102.872;2023-12-29T12:54:57;25.90;77.10
18575;DHT22;9417;16.484;102.872;2023-12-29T12:57:05;25.80;77.20
18575;DHT22;9417;16.484;102.872;2023-12-29T12:59:12;25.70;77.00
18575;DHT22;9417;16.484;102.872;2023-12-29T13:01:19;25.60;77.40
18575;DHT22;9417;16.484;102.872;2023-12-29T13:03:27;25.60;77.80
18575;DHT22;9417;16.484;102.872;2023-12-29T13:05:37;25.60;78.20
18575;DHT22;9417;16.484;102.872;2023-12-29T13:07:45;25.60;78.30
18575;DHT22;9417;16.484;102.872;2023-12-29T13:09:53;25.50;78.60
18575;DHT22;9417;16.484;102.872;2023-12-29T13:12:11;25.50;78.90
18575;DHT22;9417;16.484;102.872;2023-12-29T13:14:22;25.40;78.90
18575;DHT22;9417;16.484;102.872;2023-12-29T13:16:30;25.40;78.90
18575;DHT22;9417;16.484;102.872;2023-12-29T13:18:37;25.40;79.70